createdAt,value
2023-04-16T00:01:16.781Z,96450.75
2023-04-16T00:03:43.437Z,96443.03
2023-04-16T00:06:12.471Z,96442.91
2023-04-16T00:08:38.894Z,96426.72
2023-04-16T00:11:05.739Z,96440.50
2023-04-16T00:13:32.621Z,96438.75
2023-04-16T00:15:59.151Z,96437.97
2023-04-16T00:18:26.163Z,96445.59
2023-04-16T00:20:53.458Z,96449.91
2023-04-16T00:23:20.059Z,96447.38
2023-04-16T00:25:46.685Z,96443.03
2023-04-16T00:28:13.155Z,96450.69
2023-04-16T00:30:40.007Z,96445.69
2023-04-16T00:33:06.686Z,96439.72
2023-04-16T00:35:33.098Z,96455.03
2023-04-16T00:37:59.770Z,96444.81
2023-04-16T00:40:29.903Z,96450.63
2023-04-16T00:42:56.369Z,96450.63
2023-04-16T00:45:22.833Z,96457.31
2023-04-16T00:47:49.713Z,96451.44
2023-04-16T00:50:17.555Z,96453.16
2023-04-16T00:52:46.250Z,96447.16
2023-04-16T00:55:13.425Z,96448.88
2023-04-16T00:57:40.030Z,96443.03
2023-04-16T01:00:07.103Z,96441.44
2023-04-16T01:02:34.230Z,96444.81
2023-04-16T01:05:02.273Z,96434.63
2023-04-16T01:07:29.101Z,96432.13
2023-04-16T01:09:56.266Z,96430.31
2023-04-16T01:12:23.305Z,96448.13
2023-04-16T01:14:50.053Z,96436.19
2023-04-16T01:17:16.445Z,96450.53
2023-04-16T01:19:43.133Z,96453.94
2023-04-16T01:22:09.588Z,96450.59
2023-04-16T01:24:36.494Z,96448.09
2023-04-16T01:27:02.976Z,96450.69
2023-04-16T01:29:29.395Z,96450.69
2023-04-16T01:31:55.770Z,96451.50
2023-04-16T01:34:22.302Z,96462.53
2023-04-16T01:36:48.816Z,96459.19
2023-04-16T01:39:16.322Z,96457.41
2023-04-16T01:41:43.232Z,96454.81
2023-04-16T01:44:09.671Z,96465.88
2023-04-16T01:46:37.753Z,96468.50
2023-04-16T01:49:04.923Z,96468.50
2023-04-16T01:51:32.773Z,96472.66
2023-04-16T01:53:59.316Z,96476.88
2023-04-16T01:56:26.136Z,96471.03
2023-04-16T01:58:53.352Z,96464.16
2023-04-16T02:01:20.215Z,96471.00
2023-04-16T02:03:47.523Z,96465.88
2023-04-16T02:06:14.693Z,96465.91
2023-04-16T02:08:41.689Z,96465.03
2023-04-16T02:11:08.198Z,96467.56
2023-04-16T02:13:34.899Z,96458.16
2023-04-16T02:16:02.460Z,96464.19
2023-04-16T02:18:28.927Z,96466.66
2023-04-16T02:20:58.551Z,96475.19
2023-04-16T02:23:25.289Z,96463.25
2023-04-16T02:25:53.153Z,96482.00
2023-04-16T02:28:19.584Z,96477.78
2023-04-16T02:30:46.038Z,96477.69
2023-04-16T02:33:12.820Z,96481.09
2023-04-16T02:35:40.248Z,96487.03
2023-04-16T02:38:08.178Z,96490.41
2023-04-16T02:40:34.861Z,96493.78
2023-04-16T02:43:01.255Z,96493.81
2023-04-16T02:45:27.855Z,96499.78
2023-04-16T02:47:54.361Z,96499.75
2023-04-16T02:50:21.038Z,96498.91
2023-04-16T02:52:48.627Z,96497.22
2023-04-16T02:55:15.245Z,96509.16
2023-04-16T02:57:42.519Z,96504.84
2023-04-16T03:00:09.996Z,96507.47
2023-04-16T03:02:36.480Z,96501.53
2023-04-16T03:05:03.612Z,96504.91
2023-04-16T03:07:30.118Z,96495.56
2023-04-16T03:09:56.833Z,96499.81
2023-04-16T03:12:23.297Z,96500.63
2023-04-16T03:14:52.504Z,96511.72
2023-04-16T03:17:19.066Z,96506.66
2023-04-16T03:19:46.068Z,96509.19
2023-04-16T03:22:12.521Z,96513.41
2023-04-16T03:24:38.974Z,96512.56
2023-04-16T03:27:05.716Z,96509.09
2023-04-16T03:29:32.239Z,96520.22
2023-04-16T03:31:58.770Z,96527.00
2023-04-16T03:34:25.341Z,96518.50
2023-04-16T03:36:51.768Z,96516.81
2023-04-16T03:39:18.317Z,96525.31
2023-04-16T03:41:44.836Z,96523.59
2023-04-16T03:44:11.332Z,96532.94
2023-04-16T03:46:37.768Z,96520.19
2023-04-16T03:49:04.191Z,96522.78
2023-04-16T03:51:30.833Z,96527.03
2023-04-16T03:53:57.221Z,96528.72
2023-04-16T03:56:23.824Z,96527.88
2023-04-16T03:58:50.222Z,96534.66
2023-04-16T04:01:16.811Z,96534.72
2023-04-16T04:03:43.300Z,96540.66
2023-04-16T04:06:09.986Z,96536.38
2023-04-16T04:08:36.422Z,96532.13
2023-04-16T04:11:02.854Z,96535.63
2023-04-16T04:13:29.536Z,96541.53
2023-04-16T04:15:56.131Z,96544.81
2023-04-16T04:18:22.667Z,96550.81
2023-04-16T04:20:49.183Z,96546.59
2023-04-16T04:23:15.700Z,96543.97
2023-04-16T04:25:42.110Z,96549.22
2023-04-16T04:28:08.512Z,96544.25
2023-04-16T04:30:35.951Z,96541.66
2023-04-16T04:33:02.667Z,96550.94
2023-04-16T04:35:29.273Z,96561.16
2023-04-16T04:37:55.741Z,96563.69
2023-04-16T04:40:22.210Z,96567.91
2023-04-16T04:42:48.631Z,96573.03
2023-04-16T04:45:15.293Z,96563.75
2023-04-16T04:47:41.951Z,96568.00
2023-04-16T04:50:08.853Z,96572.28
2023-04-16T04:52:35.805Z,96573.13
2023-04-16T04:55:02.159Z,96581.63
2023-04-16T04:57:28.563Z,96585.06
2023-04-16T04:59:54.933Z,96585.09
2023-04-16T05:02:21.550Z,96582.66
2023-04-16T05:04:48.021Z,96581.84
2023-04-16T05:07:14.470Z,96592.16
2023-04-16T05:09:41.026Z,96587.91
2023-04-16T05:12:07.575Z,96586.09
2023-04-16T05:14:34.189Z,96589.59
2023-04-16T05:17:00.992Z,96596.63
2023-04-16T05:19:27.423Z,96591.59
2023-04-16T05:21:54.359Z,96598.44
2023-04-16T05:24:21.066Z,96602.81
2023-04-16T05:26:47.486Z,96607.09
2023-04-16T05:29:13.940Z,96599.47
2023-04-16T05:31:40.914Z,96613.19
2023-04-16T05:34:07.359Z,96611.53
2023-04-16T05:36:33.842Z,96617.50
2023-04-16T05:39:00.213Z,96617.53
2023-04-16T05:41:26.619Z,96621.00
2023-04-16T05:43:53.042Z,96622.69
2023-04-16T05:46:19.689Z,96626.13
2023-04-16T05:48:46.405Z,96623.56
2023-04-16T05:51:13.019Z,96620.19
2023-04-16T05:53:39.442Z,96634.72
2023-04-16T05:56:06.260Z,96624.50
2023-04-16T05:58:32.746Z,96635.66
2023-04-16T06:00:59.725Z,96631.44
2023-04-16T06:03:26.133Z,96637.38
2023-04-16T06:05:53.128Z,96639.94
2023-04-16T06:08:19.788Z,96638.31
2023-04-16T06:10:47.422Z,96640.94
2023-04-16T06:13:14.192Z,96642.81
2023-04-16T06:15:40.658Z,96643.66
2023-04-16T06:18:07.142Z,96632.63
2023-04-16T06:20:33.585Z,96640.44
2023-04-16T06:22:59.981Z,96639.66
2023-04-16T06:25:26.491Z,96620.72
2023-04-16T06:27:52.834Z,96638.75
2023-04-16T06:30:20.004Z,96646.44
2023-04-16T06:32:46.639Z,96645.59
2023-04-16T06:35:13.248Z,96644.84
2023-04-16T06:37:39.973Z,96646.59
2023-04-16T06:40:06.960Z,96632.03
2023-04-16T06:42:33.530Z,96645.75
2023-04-16T06:45:00.042Z,96650.03
2023-04-16T06:47:27.082Z,96656.88
2023-04-16T06:49:53.618Z,96652.69
2023-04-16T06:52:20.452Z,96657.78
2023-04-16T06:54:47.940Z,96659.47
2023-04-16T06:57:14.476Z,96659.47
2023-04-16T06:59:40.901Z,96669.69
2023-04-16T07:02:10.083Z,96661.25
2023-04-16T07:04:36.643Z,96670.66
2023-04-16T07:07:03.116Z,96656.28
2023-04-16T07:09:29.494Z,96659.78
2023-04-16T07:11:55.997Z,96672.59
2023-04-16T07:14:22.529Z,96659.88
2023-04-16T07:16:49.073Z,96665.94
2023-04-16T07:19:15.807Z,96653.28
2023-04-16T07:21:43.600Z,96661.84
2023-04-16T07:24:11.584Z,96661.94
2023-04-16T07:26:38.187Z,96663.66
2023-04-16T07:29:04.630Z,96671.38
2023-04-16T07:31:31.298Z,96673.16
2023-04-16T07:33:58.322Z,96672.34
2023-04-16T07:36:24.969Z,96670.72
2023-04-16T07:38:51.323Z,96670.78
2023-04-16T07:41:17.739Z,96669.06
2023-04-16T07:43:44.428Z,96669.19
2023-04-16T07:46:11.012Z,96675.19
2023-04-16T07:48:37.479Z,96670.13
2023-04-16T07:51:03.907Z,96666.75
2023-04-16T07:53:30.447Z,96676.13
2023-04-16T07:55:56.998Z,96671.84
2023-04-16T07:58:23.527Z,96678.72
2023-04-16T08:00:51.044Z,96673.63
2023-04-16T08:03:18.386Z,96679.63
2023-04-16T08:05:45.206Z,96676.25
2023-04-16T08:08:11.640Z,96678.81
2023-04-16T08:10:39.101Z,96673.66
2023-04-16T08:13:05.880Z,96687.31
2023-04-16T08:15:32.446Z,96688.19
2023-04-16T08:18:00.345Z,96689.84
2023-04-16T08:20:27.016Z,96696.66
2023-04-16T08:22:54.004Z,96700.06
2023-04-16T08:25:20.771Z,96694.00
2023-04-16T08:27:47.255Z,96700.84
2023-04-16T08:30:15.341Z,96709.34
2023-04-16T08:32:43.463Z,96717.00
2023-04-16T08:35:09.957Z,96718.66
2023-04-16T08:37:36.408Z,96721.22
2023-04-16T08:40:03.464Z,96726.31
2023-04-16T08:42:40.847Z,96723.66
2023-04-16T08:45:17.827Z,96741.56
2023-04-16T08:47:49.215Z,96739.78
2023-04-16T08:50:17.595Z,96743.19
2023-04-16T08:52:52.718Z,96741.44
2023-04-16T08:55:25.647Z,96740.63
2023-04-16T08:57:58.887Z,96744.94
2023-04-16T09:00:25.714Z,96744.09
2023-04-16T09:02:53.834Z,96742.41
2023-04-16T09:05:22.696Z,96749.25
2023-04-16T09:07:49.310Z,96755.16
2023-04-16T09:10:16.424Z,96754.22
2023-04-16T09:12:43.537Z,96753.44
2023-04-16T09:15:11.589Z,96766.22
2023-04-16T09:17:38.940Z,96761.97
2023-04-16T09:20:08.657Z,96767.97
2023-04-16T09:22:36.180Z,96769.63
2023-04-16T09:25:02.825Z,96767.03
2023-04-16T09:27:30.239Z,96773.69
2023-04-16T09:29:56.687Z,96774.72
2023-04-16T09:32:27.888Z,96779.94
2023-04-16T09:35:02.078Z,96776.56
2023-04-16T09:37:29.948Z,96780.94
2023-04-16T09:39:57.612Z,96774.22
2023-04-16T09:42:29.365Z,96778.63
2023-04-16T09:44:59.422Z,96779.59
2023-04-16T09:47:42.397Z,96777.13
2023-04-16T09:50:12.488Z,96782.31
2023-04-16T09:52:39.561Z,96774.56
2023-04-16T09:55:06.444Z,96779.78
2023-04-16T09:57:32.871Z,96774.66
2023-04-16T10:00:04.758Z,96767.09
2023-04-16T10:02:33.030Z,96767.16
2023-04-16T10:05:02.306Z,96762.03
2023-04-16T10:07:30.187Z,96769.75
2023-04-16T10:09:56.944Z,96768.88
2023-04-16T10:12:23.463Z,96767.16
2023-04-16T10:14:50.401Z,96777.34
2023-04-16T10:17:17.423Z,96764.44
2023-04-16T10:19:45.563Z,96765.31
2023-04-16T10:22:12.006Z,96774.69
2023-04-16T10:24:39.222Z,96775.59
2023-04-16T10:27:05.826Z,96778.94
2023-04-16T10:29:33.321Z,96776.25
2023-04-16T10:32:01.127Z,96776.41
2023-04-16T10:34:28.986Z,96774.66
2023-04-16T10:36:55.982Z,96778.97
2023-04-16T10:39:24.359Z,96775.63
2023-04-16T10:42:06.168Z,96777.31
2023-04-16T10:44:33.194Z,96778.19
2023-04-16T10:46:59.650Z,96767.91
2023-04-16T10:49:27.309Z,96782.44
2023-04-16T10:51:58.697Z,96785.91
2023-04-16T10:54:26.681Z,96780.75
2023-04-16T10:56:56.053Z,96785.94
2023-04-16T10:59:23.693Z,96789.38
2023-04-16T11:01:55.683Z,96791.13
2023-04-16T11:04:25.336Z,96792.00
2023-04-16T11:07:16.476Z,96790.28
2023-04-16T11:09:56.126Z,96792.84
2023-04-16T11:12:37.330Z,96794.56
2023-04-16T11:15:09.403Z,96792.81
2023-04-16T11:17:47.099Z,96790.28
2023-04-16T11:20:20.399Z,96786.84
2023-04-16T11:22:55.731Z,96790.25
2023-04-16T11:25:30.387Z,96793.66
2023-04-16T11:28:01.075Z,96807.38
2023-04-16T11:30:35.990Z,96798.81
2023-04-16T11:33:09.734Z,96801.38
2023-04-16T11:35:36.237Z,96801.34
2023-04-16T11:38:02.689Z,96803.06
2023-04-16T11:40:31.944Z,96809.91
2023-04-16T11:43:13.540Z,96808.22
2023-04-16T11:45:53.417Z,96804.78
2023-04-16T11:48:19.812Z,96810.75
2023-04-16T11:50:55.711Z,96810.78
2023-04-16T11:53:22.182Z,96810.78
2023-04-16T11:55:48.803Z,96807.38
2023-04-16T11:58:19.145Z,96808.22
2023-04-16T12:00:46.537Z,96808.19
2023-04-16T12:03:13.174Z,96814.22
2023-04-16T12:05:40.672Z,96811.63
2023-04-16T12:08:10.540Z,96810.78
2023-04-16T12:10:52.232Z,96817.63
2023-04-16T12:13:19.656Z,96816.78
2023-04-16T12:15:50.552Z,96812.47
2023-04-16T12:18:19.217Z,96811.63
2023-04-16T12:20:46.531Z,96811.63
2023-04-16T12:23:32.896Z,96821.88
2023-04-16T12:26:10.282Z,96813.34
2023-04-16T12:28:38.523Z,96817.63
2023-04-16T12:31:06.319Z,96818.50
2023-04-16T12:33:32.982Z,96816.75
2023-04-16T12:35:59.689Z,96815.91
2023-04-16T12:38:26.774Z,96812.50
2023-04-16T12:40:56.609Z,96813.34
2023-04-16T12:43:23.372Z,96809.94
2023-04-16T12:45:49.826Z,96810.78
2023-04-16T12:48:16.329Z,96815.06
2023-04-16T12:50:44.195Z,96820.22
2023-04-16T12:53:11.453Z,96824.53
2023-04-16T12:55:37.923Z,96816.78
2023-04-16T12:58:04.410Z,96817.66
2023-04-16T13:00:30.750Z,96813.38
2023-04-16T13:02:57.349Z,96807.38
2023-04-16T13:05:23.865Z,96812.50
2023-04-16T13:07:50.575Z,96810.78
2023-04-16T13:10:17.349Z,96809.81
2023-04-16T13:12:43.718Z,96807.13
2023-04-16T13:15:10.720Z,96808.59
2023-04-16T13:17:37.496Z,96805.88
2023-04-16T13:20:04.410Z,96796.19
2023-04-16T13:22:30.885Z,96801.06
2023-04-16T13:24:57.486Z,96802.03
2023-04-16T13:27:23.993Z,96802.47
2023-04-16T13:29:50.475Z,96805.13
2023-04-16T13:32:18.755Z,96795.50
2023-04-16T13:34:45.541Z,96797.06
2023-04-16T13:37:12.959Z,96796.59
2023-04-16T13:39:39.505Z,96798.31
2023-04-16T13:42:06.152Z,96792.91
2023-04-16T13:44:32.796Z,96789.38
2023-04-16T13:46:59.343Z,96788.13
2023-04-16T13:49:25.981Z,96792.88
2023-04-16T13:51:52.527Z,96792.28
2023-04-16T13:54:19.084Z,96800.50
2023-04-16T13:56:45.820Z,96800.97
2023-04-16T13:59:12.423Z,96801.19
2023-04-16T14:01:38.982Z,96795.53
2023-04-16T14:04:07.141Z,96805.34
2023-04-16T14:06:36.689Z,96801.06
2023-04-16T14:09:04.364Z,96798.69
2023-04-16T14:11:31.649Z,96803.00
2023-04-16T14:13:58.359Z,96798.75
2023-04-16T14:16:24.910Z,96810.88
2023-04-16T14:18:52.063Z,96811.84
2023-04-16T14:21:18.729Z,96807.66
2023-04-16T14:23:45.250Z,96817.22
2023-04-16T14:26:11.708Z,96821.81
2023-04-16T14:28:39.262Z,96821.88
2023-04-16T14:31:05.688Z,96815.91
2023-04-16T14:33:32.341Z,96820.22
2023-04-16T14:36:01.910Z,96822.81
2023-04-16T14:38:29.366Z,96830.53
2023-04-16T14:40:55.906Z,96824.53
2023-04-16T14:43:22.366Z,96839.91
2023-04-16T14:45:48.838Z,96836.50
2023-04-16T14:48:15.268Z,96848.47
2023-04-16T14:50:43.957Z,96842.41
2023-04-16T14:53:13.727Z,96846.66
2023-04-16T14:55:40.125Z,96847.47
2023-04-16T14:58:06.564Z,96854.31
2023-04-16T15:00:35.599Z,96849.06
2023-04-16T15:03:02.213Z,96843.03
2023-04-16T15:05:29.953Z,96842.13
2023-04-16T15:07:56.613Z,96851.47
2023-04-16T15:10:23.110Z,96848.84
2023-04-16T15:12:49.672Z,96849.69
2023-04-16T15:15:16.260Z,96853.91
2023-04-16T15:17:43.524Z,96854.78
2023-04-16T15:20:10.545Z,96847.13
2023-04-16T15:22:37.293Z,96854.75
2023-04-16T15:25:05.328Z,96859.84
2023-04-16T15:27:31.803Z,96859.03
2023-04-16T15:29:58.212Z,96852.22
2023-04-16T15:32:24.698Z,96859.91
2023-04-16T15:34:51.577Z,96850.53
2023-04-16T15:37:17.960Z,96852.31
2023-04-16T15:39:44.568Z,96849.66
2023-04-16T15:42:11.640Z,96854.72
2023-04-16T15:44:38.188Z,96859.00
2023-04-16T15:47:06.268Z,96853.06
2023-04-16T15:49:32.699Z,96865.94
2023-04-16T15:51:59.362Z,96862.47
2023-04-16T15:54:26.034Z,96864.25
2023-04-16T15:56:52.454Z,96866.81
2023-04-16T15:59:18.859Z,96863.41
2023-04-16T16:01:45.254Z,96866.88
2023-04-16T16:04:11.798Z,96856.63
2023-04-16T16:06:38.255Z,96865.25
2023-04-16T16:09:04.954Z,96862.72
2023-04-16T16:11:32.396Z,96867.81
2023-04-16T16:14:01.078Z,96870.41
2023-04-16T16:16:28.415Z,96870.41
2023-04-16T16:18:55.229Z,96867.88
2023-04-16T16:21:21.991Z,96864.47
2023-04-16T16:23:48.577Z,96874.72
2023-04-16T16:26:14.995Z,96872.94
2023-04-16T16:28:43.806Z,96873.84
2023-04-16T16:31:12.131Z,96872.13
2023-04-16T16:33:40.428Z,96874.69
2023-04-16T16:36:10.857Z,96869.59
2023-04-16T16:38:38.168Z,96873.00
2023-04-16T16:41:04.602Z,96868.75
2023-04-16T16:43:31.394Z,96873.88
2023-04-16T16:45:57.893Z,96874.75
2023-04-16T16:48:24.304Z,96871.31
2023-04-16T16:50:50.808Z,96870.50
2023-04-16T16:53:17.290Z,96864.53
2023-04-16T16:55:43.727Z,96866.22
2023-04-16T16:58:11.043Z,96871.28
2023-04-16T17:00:37.901Z,96878.97
2023-04-16T17:03:04.673Z,96875.53
2023-04-16T17:05:31.220Z,96875.56
2023-04-16T17:07:57.704Z,96884.09
2023-04-16T17:10:25.120Z,96886.69
2023-04-16T17:12:51.835Z,96886.63
2023-04-16T17:15:21.261Z,96895.16
2023-04-16T17:17:48.582Z,96892.59
2023-04-16T17:20:15.760Z,96895.09
2023-04-16T17:22:42.443Z,96898.50
2023-04-16T17:25:09.384Z,96891.66
2023-04-16T17:27:35.924Z,96896.78
2023-04-16T17:30:03.536Z,96900.13
2023-04-16T17:32:32.327Z,96903.56
2023-04-16T17:35:01.501Z,96900.97
2023-04-16T17:37:28.646Z,96904.38
2023-04-16T17:39:55.389Z,96908.59
2023-04-16T17:42:21.883Z,96911.97
2023-04-16T17:44:48.415Z,96918.72
2023-04-16T17:47:15.025Z,96922.94
2023-04-16T17:49:41.507Z,96916.91
2023-04-16T17:52:07.978Z,96916.00
2023-04-16T17:54:35.833Z,96914.25
2023-04-16T17:57:02.411Z,96925.38
2023-04-16T17:59:29.203Z,96924.50
2023-04-16T18:01:56.561Z,96930.41
2023-04-16T18:04:23.623Z,96932.13
2023-04-16T18:06:50.515Z,96932.91
2023-04-16T18:09:17.326Z,96939.72
2023-04-16T18:11:43.812Z,96938.84
2023-04-16T18:14:12.001Z,96943.06
2023-04-16T18:16:38.928Z,96944.66
2023-04-16T18:19:05.546Z,96943.78
2023-04-16T18:21:32.146Z,96947.22
2023-04-16T18:24:00.772Z,96948.06
2023-04-16T18:26:29.680Z,96949.78
2023-04-16T18:28:56.658Z,96951.44
2023-04-16T18:31:23.276Z,96960.81
2023-04-16T18:33:57.538Z,96960.75
2023-04-16T18:36:26.424Z,96970.94
2023-04-16T18:39:01.508Z,96963.19
2023-04-16T18:41:28.654Z,96975.13
2023-04-16T18:43:55.349Z,96961.38
2023-04-16T18:46:21.866Z,96977.69
2023-04-16T18:48:48.431Z,96978.53
2023-04-16T18:51:16.299Z,96976.75
2023-04-16T18:53:44.469Z,96965.59
2023-04-16T18:56:11.683Z,96976.69
2023-04-16T18:58:38.358Z,96972.44
2023-04-16T19:01:07.841Z,96980.16
2023-04-16T19:03:34.830Z,96988.66
2023-04-16T19:06:02.101Z,96986.91
2023-04-16T19:08:28.626Z,96986.00
2023-04-16T19:10:55.266Z,96986.81
2023-04-16T19:13:21.797Z,96991.91
2023-04-16T19:15:48.366Z,96989.34
2023-04-16T19:18:14.910Z,96987.56
2023-04-16T19:20:41.550Z,97000.38
2023-04-16T19:23:09.251Z,96996.84
2023-04-16T19:25:39.243Z,96995.19
2023-04-16T19:28:05.881Z,96992.63
2023-04-16T19:30:32.414Z,96998.63
2023-04-16T19:32:59.204Z,96995.88
2023-04-16T19:35:25.922Z,97000.91
2023-04-16T19:37:52.758Z,97001.84
2023-04-16T19:40:19.303Z,97000.91
2023-04-16T19:42:45.886Z,97005.97
2023-04-16T19:45:13.416Z,97000.88
2023-04-16T19:47:40.288Z,97000.91
2023-04-16T19:50:07.500Z,97006.84
2023-04-16T19:52:39.014Z,97007.66
2023-04-16T19:55:06.659Z,97011.03
2023-04-16T19:57:33.304Z,97010.19
2023-04-16T20:00:00.161Z,97021.28
2023-04-16T20:02:27.109Z,97018.63
2023-04-16T20:04:53.925Z,97029.75
2023-04-16T20:07:20.533Z,97022.91
2023-04-16T20:09:47.237Z,97035.59
2023-04-16T20:12:14.307Z,97033.03
2023-04-16T20:14:41.767Z,97025.25
2023-04-16T20:17:10.240Z,97024.44
2023-04-16T20:19:40.724Z,97024.34
2023-04-16T20:22:07.405Z,97025.22
2023-04-16T20:24:34.348Z,97025.19
2023-04-16T20:27:01.652Z,97023.34
2023-04-16T20:29:28.045Z,97024.13
2023-04-16T20:31:54.567Z,97021.38
2023-04-16T20:34:20.963Z,97020.63
2023-04-16T20:36:47.824Z,97027.28
2023-04-16T20:39:14.718Z,97025.69
2023-04-16T20:41:44.066Z,97023.94
2023-04-16T20:44:17.947Z,97028.97
2023-04-16T20:46:49.819Z,97028.16
2023-04-16T20:49:18.400Z,97024.63
2023-04-16T20:51:45.848Z,97021.19
2023-04-16T20:54:12.899Z,97024.56
2023-04-16T20:56:39.438Z,97023.75
2023-04-16T20:59:06.194Z,97028.81
2023-04-16T21:01:33.105Z,97026.19
2023-04-16T21:04:00.248Z,97021.91
2023-04-16T21:06:27.460Z,97038.94
2023-04-16T21:08:53.954Z,97030.41
2023-04-16T21:11:20.748Z,97028.81
2023-04-16T21:13:47.308Z,97034.78
2023-04-16T21:16:13.881Z,97031.25
2023-04-16T21:18:40.412Z,97033.00
2023-04-16T21:21:06.944Z,97021.03
2023-04-16T21:23:33.449Z,97034.75
2023-04-16T21:26:00.069Z,97031.31
2023-04-16T21:28:26.679Z,97025.28
2023-04-16T21:30:53.194Z,97039.88
2023-04-16T21:33:19.613Z,97038.09
2023-04-16T21:35:51.211Z,97015.75
2023-04-16T21:38:17.929Z,97040.59
2023-04-16T21:40:54.026Z,97045.63
2023-04-16T21:43:20.822Z,97043.03
2023-04-16T21:45:47.458Z,97036.28
2023-04-16T21:48:14.204Z,97037.19
2023-04-16T21:50:40.836Z,97038.97
2023-04-16T21:53:07.328Z,97034.66
2023-04-16T21:55:34.745Z,97032.84
2023-04-16T21:58:04.319Z,97033.63
2023-04-16T22:00:30.843Z,97038.56
2023-04-16T22:03:00.098Z,97024.94
2023-04-16T22:05:26.954Z,97028.28
2023-04-16T22:07:53.354Z,97034.88
2023-04-16T22:10:20.055Z,97037.31
2023-04-16T22:12:46.709Z,97036.31
2023-04-16T22:15:14.036Z,97036.13
2023-04-16T22:17:40.900Z,97030.16
2023-04-16T22:20:14.436Z,97031.81
2023-04-16T22:22:42.062Z,97034.28
2023-04-16T22:25:09.648Z,97031.72
2023-04-16T22:27:36.503Z,97040.22
2023-04-16T22:30:03.992Z,97032.50
2023-04-16T22:32:30.871Z,97036.66
2023-04-16T22:34:57.650Z,97033.25
2023-04-16T22:37:24.599Z,97029.75
2023-04-16T22:39:51.224Z,97035.75
2023-04-16T22:42:17.751Z,97035.59
2023-04-16T22:44:44.342Z,97031.94
2023-04-16T22:47:10.863Z,97030.41
2023-04-16T22:49:37.471Z,97018.22
2023-04-16T22:52:03.982Z,97029.19
2023-04-16T22:54:31.352Z,97034.41
2023-04-16T22:56:58.179Z,97023.00
2023-04-16T22:59:25.177Z,97033.81
2023-04-16T23:01:52.779Z,97040.50
2023-04-16T23:04:19.690Z,97029.25
2023-04-16T23:06:46.321Z,97030.84
2023-04-16T23:09:13.155Z,97035.09
2023-04-16T23:11:39.882Z,97028.22
2023-04-16T23:14:06.383Z,97031.63
2023-04-16T23:16:32.869Z,97029.84
2023-04-16T23:18:59.359Z,97023.88
2023-04-16T23:21:26.263Z,97033.19
2023-04-16T23:23:52.806Z,97013.44
2023-04-16T23:26:19.263Z,97012.63
2023-04-16T23:28:45.816Z,97015.97
2023-04-16T23:31:12.358Z,97026.91
2023-04-16T23:33:39.914Z,97017.53
2023-04-16T23:36:06.827Z,97021.81
2023-04-16T23:38:33.293Z,97021.69
2023-04-16T23:40:59.712Z,97023.38
2023-04-16T23:43:26.127Z,97031.88
2023-04-16T23:45:52.728Z,97019.94
2023-04-16T23:48:19.354Z,97026.59
2023-04-16T23:50:45.904Z,97023.97
2023-04-16T23:53:12.455Z,97007.78
2023-04-16T23:55:39.204Z,97012.81
2023-04-16T23:58:05.763Z,97012.75
